createdAt,value
2023-04-13T00:02:19.826Z,61.20
2023-04-13T00:04:46.513Z,61.24
2023-04-13T00:07:16.912Z,61.33
2023-04-13T00:09:45.380Z,61.34
2023-04-13T00:12:12.690Z,61.66
2023-04-13T00:14:39.239Z,61.21
2023-04-13T00:17:05.866Z,61.59
2023-04-13T00:19:36.759Z,61.24
2023-04-13T00:22:04.496Z,61.44
2023-04-13T00:24:31.083Z,61.47
2023-04-13T00:26:57.618Z,61.74
2023-04-13T00:29:24.202Z,62.18
2023-04-13T00:31:50.750Z,62.30
2023-04-13T00:34:17.245Z,62.50
2023-04-13T00:36:43.837Z,62.25
2023-04-13T00:39:10.504Z,62.17
2023-04-13T00:41:37.055Z,62.21
2023-04-13T00:44:03.642Z,62.46
2023-04-13T00:46:31.547Z,62.19
2023-04-13T00:49:01.705Z,62.46
2023-04-13T00:51:30.341Z,62.21
2023-04-13T00:53:59.441Z,62.40
2023-04-13T00:56:27.336Z,62.28
2023-04-13T00:58:55.197Z,62.15
2023-04-13T01:01:21.839Z,62.24
2023-04-13T01:03:49.638Z,61.97
2023-04-13T01:06:34.021Z,62.53
2023-04-13T01:09:11.251Z,62.75
2023-04-13T01:11:43.684Z,62.74
2023-04-13T01:14:23.273Z,62.90
2023-04-13T01:16:57.329Z,62.89
2023-04-13T01:19:56.866Z,62.79
2023-04-13T01:22:27.313Z,62.84
2023-04-13T01:25:18.433Z,62.87
2023-04-13T01:27:50.760Z,62.47
2023-04-13T01:30:26.309Z,62.46
2023-04-13T01:32:53.577Z,62.63
2023-04-13T01:35:25.622Z,62.67
2023-04-13T01:37:52.338Z,63.04
2023-04-13T01:40:21.216Z,63.49
2023-04-13T01:42:47.925Z,63.67
2023-04-13T01:45:18.586Z,63.88
2023-04-13T01:47:54.482Z,63.41
2023-04-13T01:50:46.097Z,63.99
2023-04-13T01:53:17.356Z,64.46
2023-04-13T01:55:44.807Z,64.20
2023-04-13T01:58:13.533Z,64.88
2023-04-13T02:00:41.249Z,64.97
2023-04-13T02:03:09.899Z,64.79
2023-04-13T02:05:42.941Z,65.10
2023-04-13T02:08:09.697Z,64.86
2023-04-13T02:10:37.711Z,64.69
2023-04-13T02:13:04.520Z,64.98
2023-04-13T02:15:35.609Z,65.14
2023-04-13T02:18:02.370Z,65.40
2023-04-13T02:20:30.703Z,65.55
2023-04-13T02:22:57.187Z,65.53
2023-04-13T02:25:23.930Z,66.03
2023-04-13T02:27:51.558Z,66.09
2023-04-13T02:30:18.077Z,66.55
2023-04-13T02:32:49.476Z,66.68
2023-04-13T02:35:16.129Z,67.26
2023-04-13T02:37:42.760Z,67.44
2023-04-13T02:40:12.534Z,67.53
2023-04-13T02:42:39.499Z,67.86
2023-04-13T02:45:07.792Z,67.74
2023-04-13T02:47:34.870Z,67.84
2023-04-13T02:50:02.049Z,68.17
2023-04-13T02:52:28.802Z,67.81
2023-04-13T02:54:55.414Z,67.78
2023-04-13T02:57:22.488Z,68.05
2023-04-13T02:59:49.673Z,67.87
2023-04-13T03:02:17.396Z,67.68
2023-04-13T03:04:44.535Z,67.59
2023-04-13T03:07:14.582Z,67.77
2023-04-13T03:09:41.808Z,67.80
2023-04-13T03:12:09.212Z,67.96
2023-04-13T03:14:36.881Z,67.86
2023-04-13T03:17:08.316Z,68.30
2023-04-13T03:19:36.209Z,67.84
2023-04-13T03:22:02.882Z,68.10
2023-04-13T03:24:29.536Z,67.91
2023-04-13T03:26:57.071Z,67.63
2023-04-13T03:29:24.488Z,67.69
2023-04-13T03:31:51.561Z,67.67
2023-04-13T03:34:18.700Z,67.03
2023-04-13T03:36:45.880Z,67.94
2023-04-13T03:39:12.415Z,67.77
2023-04-13T03:41:39.003Z,67.82
2023-04-13T03:44:05.871Z,67.47
2023-04-13T03:46:33.249Z,67.55
2023-04-13T03:48:59.938Z,67.81
2023-04-13T03:51:27.832Z,67.93
2023-04-13T03:53:55.072Z,68.20
2023-04-13T03:56:21.669Z,68.35
2023-04-13T03:58:48.228Z,68.67
2023-04-13T04:01:15.011Z,68.98
2023-04-13T04:03:41.665Z,69.23
2023-04-13T04:06:08.928Z,69.43
2023-04-13T04:08:35.793Z,69.20
2023-04-13T04:11:02.980Z,69.82
2023-04-13T04:13:29.535Z,69.92
2023-04-13T04:15:56.578Z,71.13
2023-04-13T04:18:23.249Z,70.76
2023-04-13T04:20:49.767Z,70.98
2023-04-13T04:23:19.794Z,71.56
2023-04-13T04:25:46.857Z,71.98
2023-04-13T04:28:18.005Z,72.53
2023-04-13T04:30:45.817Z,72.03
2023-04-13T04:33:14.495Z,72.08
2023-04-13T04:35:51.488Z,72.55
2023-04-13T04:38:18.523Z,73.66
2023-04-13T04:40:45.679Z,73.04
2023-04-13T04:43:13.401Z,73.74
2023-04-13T04:45:43.734Z,73.71
2023-04-13T04:48:11.890Z,73.95
2023-04-13T04:50:38.596Z,73.58
2023-04-13T04:53:05.635Z,73.43
2023-04-13T04:55:33.239Z,74.68
2023-04-13T04:57:59.840Z,74.08
2023-04-13T05:00:26.689Z,73.57
2023-04-13T05:02:53.473Z,71.45
2023-04-13T05:05:20.439Z,70.32
2023-04-13T05:07:47.067Z,70.74
2023-04-13T05:10:13.563Z,71.07
2023-04-13T05:12:40.148Z,71.20
2023-04-13T05:15:07.499Z,71.54
2023-04-13T05:17:34.828Z,69.76
2023-04-13T05:20:01.565Z,69.43
2023-04-13T05:22:28.220Z,70.52
2023-04-13T05:24:54.750Z,68.47
2023-04-13T05:27:21.410Z,69.40
2023-04-13T05:29:48.099Z,70.44
2023-04-13T05:32:14.730Z,71.39
2023-04-13T05:34:41.353Z,71.98
2023-04-13T05:37:08.629Z,72.11
2023-04-13T05:39:35.263Z,72.59
2023-04-13T05:42:01.881Z,73.03
2023-04-13T05:44:28.374Z,73.34
2023-04-13T05:46:55.056Z,73.70
2023-04-13T05:49:21.648Z,74.16
2023-04-13T05:51:48.338Z,74.35
2023-04-13T05:54:14.927Z,74.76
2023-04-13T05:56:41.498Z,74.81
2023-04-13T05:59:08.760Z,75.13
2023-04-13T06:01:36.511Z,75.36
2023-04-13T06:04:03.877Z,75.67
2023-04-13T06:06:30.704Z,75.53
2023-04-13T06:08:57.671Z,75.58
2023-04-13T06:11:25.960Z,75.24
2023-04-13T06:13:52.509Z,75.30
2023-04-13T06:16:19.163Z,75.61
2023-04-13T06:18:45.943Z,76.01
2023-04-13T06:21:12.577Z,76.11
2023-04-13T06:23:39.273Z,75.87
2023-04-13T06:26:06.880Z,75.61
2023-04-13T06:28:33.652Z,75.42
2023-04-13T06:31:00.568Z,75.56
2023-04-13T06:33:27.881Z,75.62
2023-04-13T06:35:54.422Z,75.80
2023-04-13T06:38:20.987Z,75.57
2023-04-13T06:40:47.571Z,76.11
2023-04-13T06:43:26.326Z,75.50
2023-04-13T06:45:59.883Z,75.37
2023-04-13T06:48:27.084Z,75.67
2023-04-13T06:50:57.196Z,76.33
2023-04-13T06:53:23.928Z,76.12
2023-04-13T06:55:50.976Z,76.06
2023-04-13T06:58:17.563Z,75.40
2023-04-13T07:00:44.671Z,75.57
2023-04-13T07:03:11.521Z,75.91
2023-04-13T07:05:38.980Z,75.28
2023-04-13T07:08:06.461Z,74.98
2023-04-13T07:10:33.059Z,75.59
2023-04-13T07:12:59.594Z,75.75
2023-04-13T07:15:26.293Z,75.84
2023-04-13T07:17:52.893Z,75.75
2023-04-13T07:20:19.557Z,75.88
2023-04-13T07:22:46.287Z,75.31
2023-04-13T07:25:12.791Z,75.16
2023-04-13T07:27:39.383Z,74.91
2023-04-13T07:30:06.864Z,74.91
2023-04-13T07:32:33.433Z,74.48
2023-04-13T07:35:02.098Z,74.69
2023-04-13T07:37:29.751Z,74.70
2023-04-13T07:39:56.381Z,73.69
2023-04-13T07:42:24.681Z,74.14
2023-04-13T07:44:54.585Z,73.95
2023-04-13T07:47:21.467Z,74.27
2023-04-13T07:49:47.972Z,73.75
2023-04-13T07:52:14.615Z,73.13
2023-04-13T07:54:41.329Z,73.13
2023-04-13T07:57:07.878Z,71.73
2023-04-13T07:59:34.428Z,71.53
2023-04-13T08:02:01.056Z,72.14
2023-04-13T08:04:27.856Z,71.90
2023-04-13T08:06:54.515Z,71.99
2023-04-13T08:09:21.322Z,72.42
2023-04-13T08:11:49.554Z,72.33
2023-04-13T08:14:16.694Z,71.81
2023-04-13T08:16:43.433Z,72.17
2023-04-13T08:19:10.096Z,72.10
2023-04-13T08:21:38.632Z,70.84
2023-04-13T08:24:06.440Z,70.95
2023-04-13T08:26:33.004Z,70.19
2023-04-13T08:28:59.756Z,69.17
2023-04-13T08:31:27.036Z,69.12
2023-04-13T08:33:53.723Z,69.04
2023-04-13T08:36:20.752Z,69.66
2023-04-13T08:38:47.604Z,69.85
2023-04-13T08:41:16.858Z,69.99
2023-04-13T08:43:43.570Z,69.74
2023-04-13T08:46:11.410Z,69.30
2023-04-13T08:48:59.045Z,69.27
2023-04-13T08:51:26.647Z,68.94
2023-04-13T08:53:53.760Z,68.81
2023-04-13T08:56:24.146Z,68.89
2023-04-13T08:59:07.578Z,68.74
2023-04-13T09:01:37.558Z,69.20
2023-04-13T09:04:11.931Z,68.70
2023-04-13T09:06:41.530Z,67.84
2023-04-13T09:09:10.870Z,68.03
2023-04-13T09:11:38.185Z,67.95
2023-04-13T09:14:04.790Z,67.26
2023-04-13T09:16:42.241Z,67.69
2023-04-13T09:19:10.138Z,68.07
2023-04-13T09:21:37.885Z,66.43
2023-04-13T09:24:06.050Z,67.21
2023-04-13T09:26:46.537Z,67.14
2023-04-13T09:29:14.656Z,66.73
2023-04-13T09:31:42.959Z,66.01
2023-04-13T09:34:12.055Z,65.67
2023-04-13T09:36:49.556Z,65.95
2023-04-13T09:39:28.282Z,66.47
2023-04-13T09:41:55.743Z,66.17
2023-04-13T09:44:28.339Z,65.90
2023-04-13T09:47:02.483Z,66.17
2023-04-13T09:49:49.773Z,64.95
2023-04-13T09:52:23.749Z,64.89
2023-04-13T09:54:59.909Z,65.05
2023-04-13T09:57:28.212Z,63.89
2023-04-13T09:59:56.475Z,61.65
2023-04-13T10:02:23.449Z,62.09
2023-04-13T10:04:50.237Z,61.53
2023-04-13T10:07:16.935Z,59.64
2023-04-13T10:09:44.325Z,59.93
2023-04-13T10:12:14.736Z,59.36
2023-04-13T10:14:44.310Z,59.36
2023-04-13T10:17:36.158Z,58.71
2023-04-13T10:20:12.707Z,57.74
2023-04-13T10:22:45.084Z,58.29
2023-04-13T10:25:29.157Z,57.32
2023-04-13T10:27:59.380Z,57.27
2023-04-13T10:30:26.747Z,56.55
2023-04-13T10:33:06.006Z,55.63
2023-04-13T10:35:43.284Z,54.03
2023-04-13T10:38:10.830Z,54.77
2023-04-13T10:40:48.138Z,54.12
2023-04-13T10:43:31.020Z,51.87
2023-04-13T10:46:08.323Z,51.57
2023-04-13T10:48:35.511Z,51.91
2023-04-13T10:51:02.289Z,51.74
2023-04-13T10:53:31.002Z,52.13
2023-04-13T10:55:57.936Z,51.77
2023-04-13T10:58:25.358Z,52.10
2023-04-13T11:00:52.285Z,52.64
2023-04-13T11:03:19.203Z,54.01
2023-04-13T11:05:48.413Z,53.67
2023-04-13T11:08:19.318Z,52.78
2023-04-13T11:10:56.538Z,53.95
2023-04-13T11:13:27.145Z,52.72
2023-04-13T11:16:04.157Z,52.00
2023-04-13T11:18:31.091Z,51.55
2023-04-13T11:20:57.741Z,50.75
2023-04-13T11:23:24.728Z,50.62
2023-04-13T11:25:59.912Z,50.97
2023-04-13T11:28:43.654Z,46.46
2023-04-13T11:31:11.630Z,45.84
2023-04-13T11:33:40.571Z,46.34
2023-04-13T11:36:08.086Z,43.93
2023-04-13T11:38:34.854Z,44.54
2023-04-13T11:41:14.917Z,45.03
2023-04-13T11:43:46.235Z,45.79
2023-04-13T11:46:15.493Z,46.41
2023-04-13T11:48:43.193Z,45.53
2023-04-13T11:51:11.162Z,44.63
2023-04-13T11:53:38.802Z,44.43
2023-04-13T11:56:06.665Z,45.71
2023-04-13T11:58:33.406Z,44.96
2023-04-13T12:01:12.765Z,45.25
2023-04-13T12:03:53.616Z,45.43
2023-04-13T12:06:27.925Z,45.67
2023-04-13T12:09:09.081Z,45.07
2023-04-13T12:11:42.119Z,45.40
2023-04-13T12:14:49.828Z,44.14
2023-04-13T12:17:34.905Z,44.37
2023-04-13T12:20:03.769Z,43.91
2023-04-13T12:22:50.793Z,44.36
2023-04-13T12:25:21.134Z,45.86
2023-04-13T12:27:52.585Z,44.09
2023-04-13T12:30:21.261Z,45.71
2023-04-13T12:32:50.875Z,45.85
2023-04-13T12:35:19.423Z,46.47
2023-04-13T12:37:47.646Z,46.61
2023-04-13T12:40:15.950Z,46.07
2023-04-13T12:42:43.778Z,45.67
2023-04-13T12:45:11.116Z,45.57
2023-04-13T12:47:38.204Z,46.26
2023-04-13T12:50:06.356Z,45.19
2023-04-13T12:52:32.961Z,42.79
2023-04-13T12:55:00.266Z,43.43
2023-04-13T12:57:28.321Z,42.57
2023-04-13T12:59:56.281Z,41.09
2023-04-13T13:02:24.349Z,39.99
2023-04-13T13:04:51.911Z,41.08
2023-04-13T13:07:19.118Z,41.72
2023-04-13T13:09:45.977Z,41.58
2023-04-13T13:12:12.836Z,41.88
2023-04-13T13:14:39.390Z,39.45
2023-04-13T13:17:05.963Z,39.64
2023-04-13T13:19:32.494Z,39.53
2023-04-13T13:22:00.299Z,40.62
2023-04-13T13:24:27.077Z,39.30
2023-04-13T13:27:19.603Z,39.06
2023-04-13T13:29:41.508Z,39.59
2023-04-13T13:32:09.312Z,38.36
2023-04-13T13:34:36.045Z,38.63
2023-04-13T13:37:03.090Z,38.39
2023-04-13T13:39:29.665Z,37.45
2023-04-13T13:41:57.377Z,36.97
2023-04-13T13:44:25.009Z,37.39
2023-04-13T13:46:51.713Z,37.17
2023-04-13T13:49:18.269Z,38.52
2023-04-13T13:51:44.842Z,38.58
2023-04-13T13:54:11.406Z,37.03
2023-04-13T13:56:38.035Z,35.71
2023-04-13T13:59:04.717Z,36.25
2023-04-13T14:06:59.863Z,33.92
2023-04-13T14:09:27.794Z,35.22
2023-04-13T14:11:54.677Z,32.30
2023-04-13T14:14:22.727Z,32.88
2023-04-13T14:16:49.433Z,32.02
2023-04-13T14:19:16.007Z,30.65
2023-04-13T14:21:42.692Z,30.61
2023-04-13T14:24:09.372Z,29.83
2023-04-13T14:26:38.217Z,29.55
2023-04-13T14:29:05.259Z,30.01
2023-04-13T14:31:31.852Z,31.14
2023-04-13T14:33:58.341Z,30.38
2023-04-13T14:36:25.468Z,29.96
2023-04-13T14:38:52.568Z,29.30
2023-04-13T14:41:19.374Z,30.05
2023-04-13T14:43:45.866Z,29.73
2023-04-13T14:46:13.445Z,30.14
2023-04-13T14:48:40.092Z,30.43
2023-04-13T14:51:07.176Z,30.34
2023-04-13T14:53:33.756Z,30.66
2023-04-13T14:56:00.334Z,30.83
2023-04-13T14:58:26.909Z,30.59
2023-04-13T15:00:54.172Z,31.39
2023-04-13T15:03:22.007Z,31.35
2023-04-13T15:05:49.871Z,32.01
2023-04-13T15:08:19.400Z,32.96
2023-04-13T15:10:46.503Z,33.47
2023-04-13T15:13:13.220Z,33.33
2023-04-13T15:15:40.772Z,32.46
2023-04-13T15:18:08.289Z,32.26
2023-04-13T15:20:34.889Z,31.25
2023-04-13T15:23:01.513Z,30.99
2023-04-13T15:25:28.555Z,29.62
2023-04-13T15:27:57.213Z,30.22
2023-04-13T15:30:29.306Z,29.89
2023-04-13T15:32:57.527Z,29.57
2023-04-13T15:35:27.465Z,30.46
2023-04-13T15:37:54.534Z,30.06
2023-04-13T15:40:22.978Z,29.39
2023-04-13T15:42:49.594Z,29.45
2023-04-13T15:45:16.193Z,30.49
2023-04-13T15:47:42.814Z,31.53
2023-04-13T15:50:09.776Z,32.89
2023-04-13T15:52:39.002Z,33.87
2023-04-13T15:55:07.044Z,34.96
2023-04-13T15:57:34.059Z,35.08
2023-04-13T16:00:01.150Z,36.92
2023-04-13T16:02:28.126Z,36.67
2023-04-13T16:04:54.997Z,37.62
2023-04-13T16:07:21.673Z,37.83
2023-04-13T16:09:51.323Z,39.53
2023-04-13T16:12:18.053Z,39.79
2023-04-13T16:14:47.131Z,40.81
2023-04-13T16:17:17.118Z,40.73
2023-04-13T16:19:46.964Z,41.22
2023-04-13T16:22:13.750Z,42.04
2023-04-13T16:24:41.098Z,42.76
2023-04-13T16:27:08.729Z,44.60
2023-04-13T16:29:35.565Z,44.58
2023-04-13T16:32:02.384Z,43.64
2023-04-13T16:34:29.382Z,43.11
2023-04-13T16:36:56.601Z,42.77
2023-04-13T16:39:23.281Z,42.79
2023-04-13T16:41:50.252Z,43.76
2023-04-13T16:44:16.972Z,43.26
2023-04-13T16:46:43.563Z,43.49
2023-04-13T16:49:10.406Z,43.85
2023-04-13T16:51:37.022Z,45.40
2023-04-13T16:54:04.595Z,46.19
2023-04-13T16:56:31.248Z,46.94
2023-04-13T16:58:58.370Z,48.02
2023-04-13T17:01:25.714Z,48.20
2023-04-13T17:03:53.354Z,49.17
2023-04-13T17:06:20.613Z,50.25
2023-04-13T17:08:47.223Z,50.41
2023-04-13T17:11:13.808Z,50.82
2023-04-13T17:13:40.559Z,49.53
2023-04-13T17:16:09.857Z,49.43
2023-04-13T17:18:36.658Z,49.89
2023-04-13T17:21:03.402Z,50.97
2023-04-13T17:23:30.103Z,50.37
2023-04-13T17:25:56.715Z,51.23
2023-04-13T17:28:24.090Z,49.78
2023-04-13T17:30:50.900Z,49.62
2023-04-13T17:33:17.613Z,48.29
2023-04-13T17:35:44.207Z,48.49
2023-04-13T17:38:11.034Z,49.59
2023-04-13T17:40:37.578Z,50.03
2023-04-13T17:43:05.744Z,50.26
2023-04-13T17:45:32.383Z,50.29
2023-04-13T17:47:58.994Z,51.44
2023-04-13T17:50:25.671Z,51.85
2023-04-13T17:52:52.202Z,51.78
2023-04-13T17:55:18.923Z,52.05
2023-04-13T17:57:45.477Z,52.08
2023-04-13T18:00:12.810Z,52.01
2023-04-13T18:02:39.540Z,52.98
2023-04-13T18:05:07.344Z,53.23
2023-04-13T18:07:33.872Z,51.89
2023-04-13T18:10:00.505Z,53.15
2023-04-13T18:12:27.086Z,53.03
2023-04-13T18:14:53.909Z,53.70
2023-04-13T18:17:21.604Z,52.96
2023-04-13T18:19:52.258Z,55.54
2023-04-13T18:22:18.748Z,55.72
2023-04-13T18:24:45.348Z,56.79
2023-04-13T18:27:12.356Z,57.78
2023-04-13T18:29:38.931Z,58.63
2023-04-13T18:32:05.667Z,59.17
2023-04-13T18:34:34.488Z,60.31
2023-04-13T18:37:02.689Z,60.62
2023-04-13T18:39:29.225Z,60.84
2023-04-13T18:41:55.796Z,62.01
2023-04-13T18:44:22.349Z,62.06
2023-04-13T18:46:48.865Z,62.50
2023-04-13T18:49:16.864Z,63.25
2023-04-13T18:51:43.888Z,62.77
2023-04-13T18:54:10.438Z,62.97
2023-04-13T18:56:37.012Z,63.25
2023-04-13T18:59:03.504Z,63.71
2023-04-13T19:01:30.088Z,63.17
2023-04-13T19:03:56.892Z,62.73
2023-04-13T19:06:23.883Z,62.33
2023-04-13T19:08:50.442Z,62.47
2023-04-13T19:11:17.770Z,63.01
2023-04-13T19:13:46.297Z,62.84
2023-04-13T19:16:13.985Z,63.28
2023-04-13T19:18:40.528Z,62.20
2023-04-13T19:21:07.119Z,62.34
2023-04-13T19:23:33.680Z,62.23
2023-04-13T19:26:00.236Z,62.09
2023-04-13T19:28:27.037Z,62.04
2023-04-13T19:30:55.085Z,61.56
2023-04-13T19:33:21.616Z,61.10
2023-04-13T19:35:49.331Z,60.90
2023-04-13T19:38:16.170Z,60.93
2023-04-13T19:40:43.577Z,60.38
2023-04-13T19:43:10.111Z,60.33
2023-04-13T19:45:36.845Z,59.70
2023-04-13T19:48:03.512Z,60.35
2023-04-13T19:50:30.142Z,60.43
2023-04-13T19:52:58.420Z,61.04
2023-04-13T19:55:25.274Z,61.11
2023-04-13T19:57:51.852Z,61.63
2023-04-13T20:00:20.137Z,61.76
2023-04-13T20:02:49.864Z,61.75
2023-04-13T20:05:18.216Z,61.98
2023-04-13T20:07:44.852Z,62.15
2023-04-13T20:10:12.340Z,62.57
2023-04-13T20:12:39.037Z,62.81
2023-04-13T20:15:06.304Z,62.97
2023-04-13T20:17:33.002Z,62.86
2023-04-13T20:20:00.191Z,63.44
2023-04-13T20:22:26.823Z,63.51
2023-04-13T20:24:53.402Z,63.79
2023-04-13T20:27:21.816Z,63.71
2023-04-13T20:29:49.481Z,64.02
2023-04-13T20:32:16.132Z,63.96
2023-04-13T20:34:43.645Z,64.08
2023-04-13T20:37:10.288Z,64.26
2023-04-13T20:39:40.299Z,64.22
2023-04-13T20:42:08.269Z,64.43
2023-04-13T20:44:38.195Z,64.86
2023-04-13T20:47:05.396Z,64.80
2023-04-13T20:49:32.046Z,65.46
2023-04-13T20:52:02.072Z,65.29
2023-04-13T20:54:28.623Z,65.85
2023-04-13T20:56:55.160Z,66.01
2023-04-13T20:59:21.941Z,66.02
2023-04-13T21:01:49.010Z,65.95
2023-04-13T21:04:15.728Z,66.07
2023-04-13T21:06:42.469Z,66.36
2023-04-13T21:09:09.221Z,66.44
2023-04-13T21:11:35.951Z,66.92
2023-04-13T21:14:02.969Z,67.47
2023-04-13T21:16:30.006Z,67.00
2023-04-13T21:18:57.096Z,66.92
2023-04-13T21:21:25.108Z,67.11
2023-04-13T21:23:52.633Z,66.66
2023-04-13T21:26:19.234Z,66.42
2023-04-13T21:28:45.786Z,66.61
2023-04-13T21:31:12.311Z,66.46
2023-04-13T21:33:38.846Z,66.65
2023-04-13T21:38:40.982Z,67.55
2023-04-13T21:41:18.010Z,67.21
2023-04-13T21:43:44.944Z,67.66
2023-04-13T21:46:13.234Z,67.73
2023-04-13T21:48:40.737Z,68.74
2023-04-13T21:51:08.885Z,68.90
2023-04-13T21:53:36.435Z,68.90
2023-04-13T21:56:04.365Z,69.42
2023-04-13T21:58:41.821Z,69.72
2023-04-13T22:01:08.805Z,69.82
2023-04-13T22:03:40.150Z,69.94
2023-04-13T22:06:08.679Z,70.27
2023-04-13T22:08:35.535Z,70.66
2023-04-13T22:11:02.881Z,70.14
2023-04-13T22:13:29.927Z,70.56
2023-04-13T22:15:56.714Z,70.25
2023-04-13T22:18:23.384Z,70.71
2023-04-13T22:20:50.084Z,70.60
2023-04-13T22:23:16.610Z,70.52
2023-04-13T22:25:51.029Z,70.49
2023-04-13T22:28:17.574Z,70.65
2023-04-13T22:30:44.424Z,70.51
2023-04-13T22:33:11.104Z,70.30
2023-04-13T22:35:37.651Z,70.20
2023-04-13T22:38:04.166Z,70.24
2023-04-13T22:40:31.127Z,70.21
2023-04-13T22:42:57.616Z,69.95
2023-04-13T22:45:24.104Z,69.67
2023-04-13T22:47:54.115Z,69.49
2023-04-13T22:50:20.806Z,69.63
2023-04-13T22:52:47.321Z,69.58
2023-04-13T22:55:14.041Z,69.59
2023-04-13T22:57:40.573Z,69.74
2023-04-13T23:00:07.662Z,70.14
2023-04-13T23:02:34.477Z,69.53
2023-04-13T23:05:01.299Z,70.09
2023-04-13T23:07:27.932Z,69.79
2023-04-13T23:09:54.481Z,69.60
2023-04-13T23:12:21.151Z,68.88
2023-04-13T23:14:47.652Z,68.96
2023-04-13T23:17:14.473Z,68.89
2023-04-13T23:19:41.072Z,68.45
2023-04-13T23:22:07.652Z,68.55
2023-04-13T23:24:34.193Z,68.79
2023-04-13T23:27:00.739Z,69.45
2023-04-13T23:29:27.333Z,69.21
2023-04-13T23:31:57.468Z,69.31
2023-04-13T23:34:24.061Z,69.53
2023-04-13T23:36:50.704Z,69.77
2023-04-13T23:39:17.260Z,69.61
2023-04-13T23:41:43.784Z,69.45
2023-04-13T23:44:11.061Z,69.83
2023-04-13T23:46:38.686Z,70.01
2023-04-13T23:49:05.786Z,69.98
2023-04-13T23:51:32.313Z,70.36
2023-04-13T23:53:58.910Z,70.28
2023-04-13T23:56:26.095Z,70.83
2023-04-13T23:58:52.642Z,70.38
